Fisher Island, Florida
Current Conditions -  °F | °C
As of 12:53 PM on Monday 24 Nov 2014 (Local Time) from KMIA Reporting Station
Broken Clouds Broken Clouds  
Wind Chill: 86°   Ceiling: 25000
Heat Index: 94°   Visibility: 10mi
Dew Point: 74°   Wind: 13mph
Humidity: 67%   Direction: 130°SE
Pressure: 29.97"   Gusts: NA
Location:  25.784°N, 80.1359°W
Report Text: KMIA 241753Z 13011KT 10SM SCT027 BKN250 30/23 A2997 RMK AO2 SLP150 T03000233 10311 20250 56015
Loading
Personal Weather Stations






























Interactive Weather Map New forecast layout! Learn more

10-Day Weather Forecast

Advertisements
Track Severe Weather on mobile